sensor_id;sensor_type;location;lat;lon;timestamp;temperature;humidity
53962;DHT22;39868;53.398;6.564;2022-10-26T00:01:11;13.80;77.60
53962;DHT22;39868;53.398;6.564;2022-10-26T00:03:40;13.90;78.10
53962;DHT22;39868;53.398;6.564;2022-10-26T00:06:19;13.80;77.40
53962;DHT22;39868;53.398;6.564;2022-10-26T00:08:47;13.80;77.30
53962;DHT22;39868;53.398;6.564;2022-10-26T00:11:16;13.70;77.20
53962;DHT22;39868;53.398;6.564;2022-10-26T00:13:44;13.70;77.20
53962;DHT22;39868;53.398;6.564;2022-10-26T00:16:26;13.70;77.20
53962;DHT22;39868;53.398;6.564;2022-10-26T00:18:54;13.70;77.20
53962;DHT22;39868;53.398;6.564;2022-10-26T00:21:21;13.60;77.20
53962;DHT22;39868;53.398;6.564;2022-10-26T00:23:49;13.60;77.20
53962;DHT22;39868;53.398;6.564;2022-10-26T00:26:16;13.60;77.20
53962;DHT22;39868;53.398;6.564;2022-10-26T00:28:44;13.50;77.20
53962;DHT22;39868;53.398;6.564;2022-10-26T00:31:13;13.40;77.20
53962;DHT22;39868;53.398;6.564;2022-10-26T00:33:41;13.40;77.20
53962;DHT22;39868;53.398;6.564;2022-10-26T00:36:10;13.40;77.30
53962;DHT22;39868;53.398;6.564;2022-10-26T00:38:39;13.40;77.30
53962;DHT22;39868;53.398;6.564;2022-10-26T00:41:14;13.30;77.30
53962;DHT22;39868;53.398;6.564;2022-10-26T00:43:42;13.30;77.30
53962;DHT22;39868;53.398;6.564;2022-10-26T00:46:19;13.30;77.20
53962;DHT22;39868;53.398;6.564;2022-10-26T00:48:54;13.20;77.10
53962;DHT22;39868;53.398;6.564;2022-10-26T00:51:24;13.20;77.10
53962;DHT22;39868;53.398;6.564;2022-10-26T00:53:54;13.20;77.20
53962;DHT22;39868;53.398;6.564;2022-10-26T00:56:23;13.10;77.20
53962;DHT22;39868;53.398;6.564;2022-10-26T00:58:51;13.10;77.40
53962;DHT22;39868;53.398;6.564;2022-10-26T01:01:18;13.10;77.50
53962;DHT22;39868;53.398;6.564;2022-10-26T01:03:46;13.00;77.50
53962;DHT22;39868;53.398;6.564;2022-10-26T01:06:15;13.00;77.70
53962;DHT22;39868;53.398;6.564;2022-10-26T01:08:43;13.00;77.70
53962;DHT22;39868;53.398;6.564;2022-10-26T01:11:11;13.00;77.70
53962;DHT22;39868;53.398;6.564;2022-10-26T01:13:41;13.00;77.80
53962;DHT22;39868;53.398;6.564;2022-10-26T01:22:13;12.90;77.80
53962;DHT22;39868;53.398;6.564;2022-10-26T01:24:58;12.90;77.90
53962;DHT22;39868;53.398;6.564;2022-10-26T01:27:37;12.90;78.00
53962;DHT22;39868;53.398;6.564;2022-10-26T01:30:38;12.90;78.00
53962;DHT22;39868;53.398;6.564;2022-10-26T01:33:20;12.90;78.00
53962;DHT22;39868;53.398;6.564;2022-10-26T01:38:43;12.90;78.10
53962;DHT22;39868;53.398;6.564;2022-10-26T01:41:27;12.80;78.10
53962;DHT22;39868;53.398;6.564;2022-10-26T01:44:13;12.80;78.20
53962;DHT22;39868;53.398;6.564;2022-10-26T01:46:44;12.80;78.20
53962;DHT22;39868;53.398;6.564;2022-10-26T01:49:14;12.80;78.20
53962;DHT22;39868;53.398;6.564;2022-10-26T01:51:44;12.80;78.20
53962;DHT22;39868;53.398;6.564;2022-10-26T01:54:13;12.80;78.20
53962;DHT22;39868;53.398;6.564;2022-10-26T01:57:04;12.80;78.20
53962;DHT22;39868;53.398;6.564;2022-10-26T02:02:41;12.80;78.20
53962;DHT22;39868;53.398;6.564;2022-10-26T02:08:40;12.70;78.20
53962;DHT22;39868;53.398;6.564;2022-10-26T02:22:04;12.60;78.30
53962;DHT22;39868;53.398;6.564;2022-10-26T02:24:35;12.60;78.30
53962;DHT22;39868;53.398;6.564;2022-10-26T02:27:06;12.60;78.30
53962;DHT22;39868;53.398;6.564;2022-10-26T02:29:35;12.60;78.30
53962;DHT22;39868;53.398;6.564;2022-10-26T02:32:05;12.60;78.40
53962;DHT22;39868;53.398;6.564;2022-10-26T02:34:35;12.60;78.40
53962;DHT22;39868;53.398;6.564;2022-10-26T02:37:05;12.50;78.30
53962;DHT22;39868;53.398;6.564;2022-10-26T02:39:34;12.50;78.30
53962;DHT22;39868;53.398;6.564;2022-10-26T02:42:05;12.50;78.30
53962;DHT22;39868;53.398;6.564;2022-10-26T02:44:55;12.50;78.30
53962;DHT22;39868;53.398;6.564;2022-10-26T02:47:24;12.50;78.30
53962;DHT22;39868;53.398;6.564;2022-10-26T02:49:55;12.40;78.20
53962;DHT22;39868;53.398;6.564;2022-10-26T02:57:55;12.40;78.00
53962;DHT22;39868;53.398;6.564;2022-10-26T03:00:25;12.40;78.10
53962;DHT22;39868;53.398;6.564;2022-10-26T03:02:55;12.30;78.10
53962;DHT22;39868;53.398;6.564;2022-10-26T03:05:28;12.30;78.10
53962;DHT22;39868;53.398;6.564;2022-10-26T03:07:56;12.30;78.10
53962;DHT22;39868;53.398;6.564;2022-10-26T03:10:24;12.20;78.10
53962;DHT22;39868;53.398;6.564;2022-10-26T03:12:52;12.20;78.10
53962;DHT22;39868;53.398;6.564;2022-10-26T03:15:20;12.20;78.10
53962;DHT22;39868;53.398;6.564;2022-10-26T03:17:47;12.20;78.20
53962;DHT22;39868;53.398;6.564;2022-10-26T03:20:15;12.20;78.20
53962;DHT22;39868;53.398;6.564;2022-10-26T03:22:45;12.20;78.20
53962;DHT22;39868;53.398;6.564;2022-10-26T03:25:13;12.10;78.10
53962;DHT22;39868;53.398;6.564;2022-10-26T03:27:42;12.10;78.20
53962;DHT22;39868;53.398;6.564;2022-10-26T03:30:10;12.10;78.40
53962;DHT22;39868;53.398;6.564;2022-10-26T03:32:37;12.10;78.20
53962;DHT22;39868;53.398;6.564;2022-10-26T03:35:05;12.10;78.30
53962;DHT22;39868;53.398;6.564;2022-10-26T03:37:33;12.00;78.20
53962;DHT22;39868;53.398;6.564;2022-10-26T03:40:00;12.00;78.20
53962;DHT22;39868;53.398;6.564;2022-10-26T03:42:28;12.00;78.30
53962;DHT22;39868;53.398;6.564;2022-10-26T03:44:59;12.00;78.30
53962;DHT22;39868;53.398;6.564;2022-10-26T03:47:27;11.90;78.30
53962;DHT22;39868;53.398;6.564;2022-10-26T03:49:54;11.90;78.40
53962;DHT22;39868;53.398;6.564;2022-10-26T03:52:22;11.90;78.40
53962;DHT22;39868;53.398;6.564;2022-10-26T03:54:51;11.90;78.50
53962;DHT22;39868;53.398;6.564;2022-10-26T03:57:18;11.90;78.50
53962;DHT22;39868;53.398;6.564;2022-10-26T03:59:46;11.90;78.60
53962;DHT22;39868;53.398;6.564;2022-10-26T04:02:13;11.90;78.60
53962;DHT22;39868;53.398;6.564;2022-10-26T04:04:41;11.90;78.60
53962;DHT22;39868;53.398;6.564;2022-10-26T04:07:09;11.90;78.60
53962;DHT22;39868;53.398;6.564;2022-10-26T04:09:37;11.90;78.60
53962;DHT22;39868;53.398;6.564;2022-10-26T04:12:04;11.90;78.70
53962;DHT22;39868;53.398;6.564;2022-10-26T04:14:32;11.90;78.70
53962;DHT22;39868;53.398;6.564;2022-10-26T04:17:00;11.90;78.70
53962;DHT22;39868;53.398;6.564;2022-10-26T04:19:27;11.90;78.60
53962;DHT22;39868;53.398;6.564;2022-10-26T04:21:54;11.90;78.60
53962;DHT22;39868;53.398;6.564;2022-10-26T04:24:22;11.90;78.60
53962;DHT22;39868;53.398;6.564;2022-10-26T04:26:50;11.90;78.70
53962;DHT22;39868;53.398;6.564;2022-10-26T04:29:17;11.90;78.70
53962;DHT22;39868;53.398;6.564;2022-10-26T04:31:44;11.90;78.80
53962;DHT22;39868;53.398;6.564;2022-10-26T04:34:12;11.90;78.80
53962;DHT22;39868;53.398;6.564;2022-10-26T04:36:40;11.90;78.80
53962;DHT22;39868;53.398;6.564;2022-10-26T04:39:07;11.90;78.90
53962;DHT22;39868;53.398;6.564;2022-10-26T04:41:35;11.90;78.90
53962;DHT22;39868;53.398;6.564;2022-10-26T04:44:03;11.90;79.00
53962;DHT22;39868;53.398;6.564;2022-10-26T04:46:31;11.90;79.10
53962;DHT22;39868;53.398;6.564;2022-10-26T04:48:58;11.90;79.20
53962;DHT22;39868;53.398;6.564;2022-10-26T04:51:26;11.90;79.20
53962;DHT22;39868;53.398;6.564;2022-10-26T04:53:54;11.90;79.30
53962;DHT22;39868;53.398;6.564;2022-10-26T04:56:21;12.00;79.50
53962;DHT22;39868;53.398;6.564;2022-10-26T04:58:52;12.00;79.40
53962;DHT22;39868;53.398;6.564;2022-10-26T05:01:20;12.00;79.50
53962;DHT22;39868;53.398;6.564;2022-10-26T05:03:49;12.00;79.50
53962;DHT22;39868;53.398;6.564;2022-10-26T05:06:16;12.00;79.50
53962;DHT22;39868;53.398;6.564;2022-10-26T05:08:44;12.10;79.60
53962;DHT22;39868;53.398;6.564;2022-10-26T05:11:12;12.10;79.60
53962;DHT22;39868;53.398;6.564;2022-10-26T05:13:40;12.10;79.60
53962;DHT22;39868;53.398;6.564;2022-10-26T05:16:08;12.10;79.60
53962;DHT22;39868;53.398;6.564;2022-10-26T05:18:35;12.10;79.60
53962;DHT22;39868;53.398;6.564;2022-10-26T05:21:03;12.20;79.70
53962;DHT22;39868;53.398;6.564;2022-10-26T05:23:30;12.20;79.80
53962;DHT22;39868;53.398;6.564;2022-10-26T05:25:58;12.20;79.80
53962;DHT22;39868;53.398;6.564;2022-10-26T05:28:25;12.30;79.90
53962;DHT22;39868;53.398;6.564;2022-10-26T05:30:53;12.30;80.00
53962;DHT22;39868;53.398;6.564;2022-10-26T05:33:20;12.30;79.90
53962;DHT22;39868;53.398;6.564;2022-10-26T05:35:48;12.30;80.00
53962;DHT22;39868;53.398;6.564;2022-10-26T05:38:16;12.40;80.10
53962;DHT22;39868;53.398;6.564;2022-10-26T05:40:51;12.40;80.10
53962;DHT22;39868;53.398;6.564;2022-10-26T05:43:25;12.40;80.10
53962;DHT22;39868;53.398;6.564;2022-10-26T05:45:55;12.40;80.10
53962;DHT22;39868;53.398;6.564;2022-10-26T05:48:23;12.50;80.10
53962;DHT22;39868;53.398;6.564;2022-10-26T05:50:50;12.50;80.20
53962;DHT22;39868;53.398;6.564;2022-10-26T05:53:18;12.50;80.20
53962;DHT22;39868;53.398;6.564;2022-10-26T05:55:46;12.50;80.20
53962;DHT22;39868;53.398;6.564;2022-10-26T05:58:14;12.60;80.30
53962;DHT22;39868;53.398;6.564;2022-10-26T06:04:49;12.60;80.30
53962;DHT22;39868;53.398;6.564;2022-10-26T06:06:52;12.70;80.30
53962;DHT22;39868;53.398;6.564;2022-10-26T06:09:21;12.70;80.30
53962;DHT22;39868;53.398;6.564;2022-10-26T06:11:48;12.70;80.30
53962;DHT22;39868;53.398;6.564;2022-10-26T06:14:21;12.70;80.30
53962;DHT22;39868;53.398;6.564;2022-10-26T06:25:41;12.90;80.30
53962;DHT22;39868;53.398;6.564;2022-10-26T06:31:16;12.90;80.40
53962;DHT22;39868;53.398;6.564;2022-10-26T06:33:44;12.90;80.30
53962;DHT22;39868;53.398;6.564;2022-10-26T06:36:23;13.00;80.40
53962;DHT22;39868;53.398;6.564;2022-10-26T06:39:07;13.00;80.40
53962;DHT22;39868;53.398;6.564;2022-10-26T06:41:36;13.00;80.50
53962;DHT22;39868;53.398;6.564;2022-10-26T06:44:04;13.00;80.40
53962;DHT22;39868;53.398;6.564;2022-10-26T06:52:37;13.10;80.30
53962;DHT22;39868;53.398;6.564;2022-10-26T06:55:16;13.10;80.40
53962;DHT22;39868;53.398;6.564;2022-10-26T06:57:44;13.10;80.20
53962;DHT22;39868;53.398;6.564;2022-10-26T07:00:22;13.10;80.30
53962;DHT22;39868;53.398;6.564;2022-10-26T07:02:51;13.10;80.50
53962;DHT22;39868;53.398;6.564;2022-10-26T07:05:19;13.20;80.50
53962;DHT22;39868;53.398;6.564;2022-10-26T07:07:47;13.20;80.50
53962;DHT22;39868;53.398;6.564;2022-10-26T07:10:15;13.20;80.50
53962;DHT22;39868;53.398;6.564;2022-10-26T07:12:43;13.20;80.60
53962;DHT22;39868;53.398;6.564;2022-10-26T07:15:11;13.20;80.60
53962;DHT22;39868;53.398;6.564;2022-10-26T07:17:45;13.30;81.20
53962;DHT22;39868;53.398;6.564;2022-10-26T07:20:16;13.30;80.70
53962;DHT22;39868;53.398;6.564;2022-10-26T07:22:43;13.30;80.80
53962;DHT22;39868;53.398;6.564;2022-10-26T07:25:11;13.40;80.80
53962;DHT22;39868;53.398;6.564;2022-10-26T07:27:39;13.40;80.80
53962;DHT22;39868;53.398;6.564;2022-10-26T07:30:08;13.40;80.80
53962;DHT22;39868;53.398;6.564;2022-10-26T07:32:36;13.50;80.90
53962;DHT22;39868;53.398;6.564;2022-10-26T07:35:03;13.50;81.50
53962;DHT22;39868;53.398;6.564;2022-10-26T07:37:31;13.60;81.00
53962;DHT22;39868;53.398;6.564;2022-10-26T07:39:59;13.60;81.00
53962;DHT22;39868;53.398;6.564;2022-10-26T07:42:33;13.60;81.10
53962;DHT22;39868;53.398;6.564;2022-10-26T07:45:00;13.70;81.10
53962;DHT22;39868;53.398;6.564;2022-10-26T07:47:28;13.70;81.10
53962;DHT22;39868;53.398;6.564;2022-10-26T07:49:55;13.80;81.20
53962;DHT22;39868;53.398;6.564;2022-10-26T07:52:23;13.80;81.20
53962;DHT22;39868;53.398;6.564;2022-10-26T07:54:50;13.80;81.20
53962;DHT22;39868;53.398;6.564;2022-10-26T07:57:18;13.90;81.20
53962;DHT22;39868;53.398;6.564;2022-10-26T07:59:45;13.90;81.10
53962;DHT22;39868;53.398;6.564;2022-10-26T08:02:13;14.00;81.10
53962;DHT22;39868;53.398;6.564;2022-10-26T08:04:40;14.10;81.10
53962;DHT22;39868;53.398;6.564;2022-10-26T08:07:08;14.10;81.00
53962;DHT22;39868;53.398;6.564;2022-10-26T08:09:36;14.10;81.00
53962;DHT22;39868;53.398;6.564;2022-10-26T08:12:03;14.20;81.00
53962;DHT22;39868;53.398;6.564;2022-10-26T08:14:31;14.20;80.90
53962;DHT22;39868;53.398;6.564;2022-10-26T08:16:59;14.30;80.90
53962;DHT22;39868;53.398;6.564;2022-10-26T08:19:26;14.30;80.90
53962;DHT22;39868;53.398;6.564;2022-10-26T08:21:54;14.30;80.90
53962;DHT22;39868;53.398;6.564;2022-10-26T08:24:21;14.40;80.90
53962;DHT22;39868;53.398;6.564;2022-10-26T08:26:48;14.40;80.90
53962;DHT22;39868;53.398;6.564;2022-10-26T08:29:16;14.40;80.80
53962;DHT22;39868;53.398;6.564;2022-10-26T08:31:43;14.50;80.90
53962;DHT22;39868;53.398;6.564;2022-10-26T08:34:13;14.60;81.00
53962;DHT22;39868;53.398;6.564;2022-10-26T08:36:41;14.60;81.00
53962;DHT22;39868;53.398;6.564;2022-10-26T08:39:08;14.70;81.00
53962;DHT22;39868;53.398;6.564;2022-10-26T08:47:02;14.80;81.10
53962;DHT22;39868;53.398;6.564;2022-10-26T08:50:05;14.90;81.10
53962;DHT22;39868;53.398;6.564;2022-10-26T08:52:36;14.90;81.00
53962;DHT22;39868;53.398;6.564;2022-10-26T08:55:10;15.00;81.00
53962;DHT22;39868;53.398;6.564;2022-10-26T08:57:41;15.10;81.10
53962;DHT22;39868;53.398;6.564;2022-10-26T09:00:18;15.20;81.20
53962;DHT22;39868;53.398;6.564;2022-10-26T09:02:50;15.30;81.20
53962;DHT22;39868;53.398;6.564;2022-10-26T09:05:29;15.40;81.20
53962;DHT22;39868;53.398;6.564;2022-10-26T09:10:39;15.60;81.20
53962;DHT22;39868;53.398;6.564;2022-10-26T09:13:14;15.70;81.10
53962;DHT22;39868;53.398;6.564;2022-10-26T09:18:45;15.80;80.90
53962;DHT22;39868;53.398;6.564;2022-10-26T09:21:27;15.90;80.90
53962;DHT22;39868;53.398;6.564;2022-10-26T09:24:14;16.00;80.80
53962;DHT22;39868;53.398;6.564;2022-10-26T09:29:43;16.10;80.70
53962;DHT22;39868;53.398;6.564;2022-10-26T09:32:27;16.20;80.60
53962;DHT22;39868;53.398;6.564;2022-10-26T09:35:00;16.30;80.60
53962;DHT22;39868;53.398;6.564;2022-10-26T09:37:31;16.30;80.60
53962;DHT22;39868;53.398;6.564;2022-10-26T09:40:37;16.40;80.50
53962;DHT22;39868;53.398;6.564;2022-10-26T09:43:23;16.40;80.30
53962;DHT22;39868;53.398;6.564;2022-10-26T09:45:53;16.50;80.20
53962;DHT22;39868;53.398;6.564;2022-10-26T09:48:39;16.60;80.20
53962;DHT22;39868;53.398;6.564;2022-10-26T09:51:12;16.60;80.10
53962;DHT22;39868;53.398;6.564;2022-10-26T09:53:41;16.70;80.30
53962;DHT22;39868;53.398;6.564;2022-10-26T09:56:11;16.80;80.40
53962;DHT22;39868;53.398;6.564;2022-10-26T09:59:04;16.80;80.50
53962;DHT22;39868;53.398;6.564;2022-10-26T10:01:41;16.90;80.50
53962;DHT22;39868;53.398;6.564;2022-10-26T10:06:49;17.00;80.40
53962;DHT22;39868;53.398;6.564;2022-10-26T10:09:23;17.10;80.40
53962;DHT22;39868;53.398;6.564;2022-10-26T10:14:28;17.30;80.30
53962;DHT22;39868;53.398;6.564;2022-10-26T10:17:17;17.40;80.30
53962;DHT22;39868;53.398;6.564;2022-10-26T10:19:46;17.50;80.30
53962;DHT22;39868;53.398;6.564;2022-10-26T10:24:55;17.60;80.00
53962;DHT22;39868;53.398;6.564;2022-10-26T10:27:28;17.70;79.90
53962;DHT22;39868;53.398;6.564;2022-10-26T10:29:58;17.80;79.90
53962;DHT22;39868;53.398;6.564;2022-10-26T10:32:31;17.90;79.90
53962;DHT22;39868;53.398;6.564;2022-10-26T10:35:23;17.90;79.40
53962;DHT22;39868;53.398;6.564;2022-10-26T10:37:51;18.10;79.50
53962;DHT22;39868;53.398;6.564;2022-10-26T10:40:21;18.10;79.50
53962;DHT22;39868;53.398;6.564;2022-10-26T10:42:50;18.20;79.10
53962;DHT22;39868;53.398;6.564;2022-10-26T10:45:27;18.30;79.10
53962;DHT22;39868;53.398;6.564;2022-10-26T10:53:57;18.60;78.70
53962;DHT22;39868;53.398;6.564;2022-10-26T10:56:52;18.70;78.80
53962;DHT22;39868;53.398;6.564;2022-10-26T11:02:32;18.90;78.10
53962;DHT22;39868;53.398;6.564;2022-10-26T11:10:26;19.10;77.70
53962;DHT22;39868;53.398;6.564;2022-10-26T11:12:59;19.10;77.70
53962;DHT22;39868;53.398;6.564;2022-10-26T11:15:31;19.20;77.50
53962;DHT22;39868;53.398;6.564;2022-10-26T11:18:06;19.30;77.30
53962;DHT22;39868;53.398;6.564;2022-10-26T11:20:42;19.30;77.30
53962;DHT22;39868;53.398;6.564;2022-10-26T11:28:58;19.50;76.70
53962;DHT22;39868;53.398;6.564;2022-10-26T11:31:52;19.60;76.30
53962;DHT22;39868;53.398;6.564;2022-10-26T11:34:25;19.60;76.70
53962;DHT22;39868;53.398;6.564;2022-10-26T11:43:11;19.80;76.30
53962;DHT22;39868;53.398;6.564;2022-10-26T11:45:43;19.80;76.00
53962;DHT22;39868;53.398;6.564;2022-10-26T11:50:44;20.00;75.60
53962;DHT22;39868;53.398;6.564;2022-10-26T11:53:24;20.00;75.40
53962;DHT22;39868;53.398;6.564;2022-10-26T11:55:54;20.10;75.50
53962;DHT22;39868;53.398;6.564;2022-10-26T11:58:24;20.10;75.30
53962;DHT22;39868;53.398;6.564;2022-10-26T12:00:57;20.20;75.20
53962;DHT22;39868;53.398;6.564;2022-10-26T12:03:32;20.20;75.20
53962;DHT22;39868;53.398;6.564;2022-10-26T12:06:01;20.30;75.10
53962;DHT22;39868;53.398;6.564;2022-10-26T12:08:35;20.40;75.20
53962;DHT22;39868;53.398;6.564;2022-10-26T12:17:30;20.50;75.00
53962;DHT22;39868;53.398;6.564;2022-10-26T12:20:06;20.60;74.70
53962;DHT22;39868;53.398;6.564;2022-10-26T12:22:38;20.60;74.90
53962;DHT22;39868;53.398;6.564;2022-10-26T12:32:49;20.80;74.00
53962;DHT22;39868;53.398;6.564;2022-10-26T12:43:38;21.00;74.20
53962;DHT22;39868;53.398;6.564;2022-10-26T12:48:42;21.10;73.50
53962;DHT22;39868;53.398;6.564;2022-10-26T12:59:20;21.20;72.70
53962;DHT22;39868;53.398;6.564;2022-10-26T13:07:44;21.20;73.10
53962;DHT22;39868;53.398;6.564;2022-10-26T13:12:54;21.20;73.20
53962;DHT22;39868;53.398;6.564;2022-10-26T13:15:38;21.20;73.00
53962;DHT22;39868;53.398;6.564;2022-10-26T13:20:35;21.30;72.90
53962;DHT22;39868;53.398;6.564;2022-10-26T13:23:15;21.30;72.80
53962;DHT22;39868;53.398;6.564;2022-10-26T13:26:01;21.30;72.80
53962;DHT22;39868;53.398;6.564;2022-10-26T13:28:31;21.30;72.90
53962;DHT22;39868;53.398;6.564;2022-10-26T13:30:59;21.30;72.30
53962;DHT22;39868;53.398;6.564;2022-10-26T13:33:35;21.30;72.60
53962;DHT22;39868;53.398;6.564;2022-10-26T13:36:16;21.20;72.40
53962;DHT22;39868;53.398;6.564;2022-10-26T13:38:45;21.20;72.60
53962;DHT22;39868;53.398;6.564;2022-10-26T13:41:41;21.10;72.40
53962;DHT22;39868;53.398;6.564;2022-10-26T13:44:13;21.10;72.50
53962;DHT22;39868;53.398;6.564;2022-10-26T13:46:52;21.10;72.30
53962;DHT22;39868;53.398;6.564;2022-10-26T13:49:26;21.10;72.50
53962;DHT22;39868;53.398;6.564;2022-10-26T13:51:55;21.10;72.50
53962;DHT22;39868;53.398;6.564;2022-10-26T13:54:37;21.10;72.70
53962;DHT22;39868;53.398;6.564;2022-10-26T13:57:14;21.00;72.50
53962;DHT22;39868;53.398;6.564;2022-10-26T13:59:44;21.10;73.40
53962;DHT22;39868;53.398;6.564;2022-10-26T14:04:50;21.10;72.90
53962;DHT22;39868;53.398;6.564;2022-10-26T14:07:22;21.10;73.00
53962;DHT22;39868;53.398;6.564;2022-10-26T14:09:55;21.00;72.90
53962;DHT22;39868;53.398;6.564;2022-10-26T14:12:25;21.10;72.80
53962;DHT22;39868;53.398;6.564;2022-10-26T14:15:25;21.10;72.80
53962;DHT22;39868;53.398;6.564;2022-10-26T14:17:53;21.00;73.00
53962;DHT22;39868;53.398;6.564;2022-10-26T14:20:23;21.00;72.90
53962;DHT22;39868;53.398;6.564;2022-10-26T14:22:51;20.90;72.90
53962;DHT22;39868;53.398;6.564;2022-10-26T14:25:25;20.90;73.00
53962;DHT22;39868;53.398;6.564;2022-10-26T14:28:26;20.90;73.00
53962;DHT22;39868;53.398;6.564;2022-10-26T14:31:17;20.90;73.20
53962;DHT22;39868;53.398;6.564;2022-10-26T14:33:46;20.90;73.30
53962;DHT22;39868;53.398;6.564;2022-10-26T14:36:15;20.80;73.30
53962;DHT22;39868;53.398;6.564;2022-10-26T14:38:48;20.80;73.20
53962;DHT22;39868;53.398;6.564;2022-10-26T14:41:18;20.90;73.40
53962;DHT22;39868;53.398;6.564;2022-10-26T14:43:46;20.80;73.40
53962;DHT22;39868;53.398;6.564;2022-10-26T14:46:16;20.90;73.40
53962;DHT22;39868;53.398;6.564;2022-10-26T14:48:57;20.90;73.50
53962;DHT22;39868;53.398;6.564;2022-10-26T14:51:27;20.90;73.40
53962;DHT22;39868;53.398;6.564;2022-10-26T14:53:57;20.90;73.40
53962;DHT22;39868;53.398;6.564;2022-10-26T14:59:26;20.80;73.20
53962;DHT22;39868;53.398;6.564;2022-10-26T15:02:00;20.80;73.20
53962;DHT22;39868;53.398;6.564;2022-10-26T15:04:34;20.80;73.20
53962;DHT22;39868;53.398;6.564;2022-10-26T15:07:15;20.70;72.90
53962;DHT22;39868;53.398;6.564;2022-10-26T15:09:51;20.70;73.10
53962;DHT22;39868;53.398;6.564;2022-10-26T15:12:35;20.70;73.00
53962;DHT22;39868;53.398;6.564;2022-10-26T15:17:52;20.60;73.00
53962;DHT22;39868;53.398;6.564;2022-10-26T15:20:27;20.50;73.00
53962;DHT22;39868;53.398;6.564;2022-10-26T15:22:58;20.50;73.20
53962;DHT22;39868;53.398;6.564;2022-10-26T15:25:31;20.40;73.20
53962;DHT22;39868;53.398;6.564;2022-10-26T15:28:40;20.40;73.20
53962;DHT22;39868;53.398;6.564;2022-10-26T15:34:05;20.40;73.50
53962;DHT22;39868;53.398;6.564;2022-10-26T15:36:31;20.30;73.50
53962;DHT22;39868;53.398;6.564;2022-10-26T15:38:58;20.30;73.60
53962;DHT22;39868;53.398;6.564;2022-10-26T15:41:30;20.30;73.70
53962;DHT22;39868;53.398;6.564;2022-10-26T15:44:00;20.20;73.70
53962;DHT22;39868;53.398;6.564;2022-10-26T15:46:36;20.20;73.80
53962;DHT22;39868;53.398;6.564;2022-10-26T15:49:06;20.20;73.80
53962;DHT22;39868;53.398;6.564;2022-10-26T15:51:34;20.20;73.90
53962;DHT22;39868;53.398;6.564;2022-10-26T15:54:03;20.10;73.90
53962;DHT22;39868;53.398;6.564;2022-10-26T15:56:31;20.10;74.00
53962;DHT22;39868;53.398;6.564;2022-10-26T15:58:59;20.10;74.10
53962;DHT22;39868;53.398;6.564;2022-10-26T16:01:27;20.10;74.20
53962;DHT22;39868;53.398;6.564;2022-10-26T16:03:55;20.10;74.30
53962;DHT22;39868;53.398;6.564;2022-10-26T16:06:30;20.10;74.30
53962;DHT22;39868;53.398;6.564;2022-10-26T16:09:00;20.00;74.20
53962;DHT22;39868;53.398;6.564;2022-10-26T16:11:28;20.00;74.30
53962;DHT22;39868;53.398;6.564;2022-10-26T16:13:56;20.00;74.30
53962;DHT22;39868;53.398;6.564;2022-10-26T16:16:29;20.00;74.30
53962;DHT22;39868;53.398;6.564;2022-10-26T16:18:57;19.90;74.20
53962;DHT22;39868;53.398;6.564;2022-10-26T16:21:44;19.90;74.20
53962;DHT22;39868;53.398;6.564;2022-10-26T16:24:12;19.90;74.20
53962;DHT22;39868;53.398;6.564;2022-10-26T16:26:39;19.90;74.40
53962;DHT22;39868;53.398;6.564;2022-10-26T16:29:07;19.90;74.30
53962;DHT22;39868;53.398;6.564;2022-10-26T16:31:34;19.90;74.30
53962;DHT22;39868;53.398;6.564;2022-10-26T16:34:02;19.90;74.40
53962;DHT22;39868;53.398;6.564;2022-10-26T16:36:30;19.80;74.30
53962;DHT22;39868;53.398;6.564;2022-10-26T16:39:00;19.80;74.40
53962;DHT22;39868;53.398;6.564;2022-10-26T16:41:33;19.80;74.40
53962;DHT22;39868;53.398;6.564;2022-10-26T16:44:01;19.70;74.30
53962;DHT22;39868;53.398;6.564;2022-10-26T16:46:28;19.70;74.40
53962;DHT22;39868;53.398;6.564;2022-10-26T16:48:56;19.70;75.00
53962;DHT22;39868;53.398;6.564;2022-10-26T16:51:26;19.70;74.50
53962;DHT22;39868;53.398;6.564;2022-10-26T16:53:55;19.60;74.40
53962;DHT22;39868;53.398;6.564;2022-10-26T16:56:26;19.60;74.50
53962;DHT22;39868;53.398;6.564;2022-10-26T16:58:55;19.60;74.50
53962;DHT22;39868;53.398;6.564;2022-10-26T17:01:25;19.60;74.60
53962;DHT22;39868;53.398;6.564;2022-10-26T17:03:53;19.60;74.60
53962;DHT22;39868;53.398;6.564;2022-10-26T17:06:20;19.50;74.60
53962;DHT22;39868;53.398;6.564;2022-10-26T17:08:48;19.50;74.60
53962;DHT22;39868;53.398;6.564;2022-10-26T17:11:18;19.50;74.70
53962;DHT22;39868;53.398;6.564;2022-10-26T17:13:51;19.50;74.70
53962;DHT22;39868;53.398;6.564;2022-10-26T17:16:20;19.40;74.70
53962;DHT22;39868;53.398;6.564;2022-10-26T17:18:49;19.40;74.70
53962;DHT22;39868;53.398;6.564;2022-10-26T17:21:19;19.40;74.70
53962;DHT22;39868;53.398;6.564;2022-10-26T17:23:47;19.30;74.70
53962;DHT22;39868;53.398;6.564;2022-10-26T17:26:14;19.30;74.80
53962;DHT22;39868;53.398;6.564;2022-10-26T17:28:42;19.30;74.90
53962;DHT22;39868;53.398;6.564;2022-10-26T17:31:12;19.30;74.90
53962;DHT22;39868;53.398;6.564;2022-10-26T17:33:41;19.30;75.00
53962;DHT22;39868;53.398;6.564;2022-10-26T17:36:12;19.20;75.00
53962;DHT22;39868;53.398;6.564;2022-10-26T17:38:42;19.20;75.00
53962;DHT22;39868;53.398;6.564;2022-10-26T17:41:11;19.20;75.00
53962;DHT22;39868;53.398;6.564;2022-10-26T17:43:40;19.20;75.10
53962;DHT22;39868;53.398;6.564;2022-10-26T17:46:34;19.10;75.10
53962;DHT22;39868;53.398;6.564;2022-10-26T17:49:02;19.10;75.20
53962;DHT22;39868;53.398;6.564;2022-10-26T17:51:29;19.10;75.20
53962;DHT22;39868;53.398;6.564;2022-10-26T17:53:57;19.10;75.20
53962;DHT22;39868;53.398;6.564;2022-10-26T17:56:30;19.10;75.30
53962;DHT22;39868;53.398;6.564;2022-10-26T17:59:03;19.10;75.30
53962;DHT22;39868;53.398;6.564;2022-10-26T18:01:31;19.00;75.30
53962;DHT22;39868;53.398;6.564;2022-10-26T18:03:59;19.00;75.30
53962;DHT22;39868;53.398;6.564;2022-10-26T18:06:27;19.00;75.30
53962;DHT22;39868;53.398;6.564;2022-10-26T18:08:58;19.00;75.30
53962;DHT22;39868;53.398;6.564;2022-10-26T18:11:25;19.00;75.40
53962;DHT22;39868;53.398;6.564;2022-10-26T18:13:54;19.00;75.30
53962;DHT22;39868;53.398;6.564;2022-10-26T18:16:24;18.90;75.30
53962;DHT22;39868;53.398;6.564;2022-10-26T18:18:57;18.90;75.30
53962;DHT22;39868;53.398;6.564;2022-10-26T18:21:30;18.90;75.30
53962;DHT22;39868;53.398;6.564;2022-10-26T18:23:59;18.90;75.40
53962;DHT22;39868;53.398;6.564;2022-10-26T18:26:28;18.90;75.50
53962;DHT22;39868;53.398;6.564;2022-10-26T18:28:57;18.80;75.40
53962;DHT22;39868;53.398;6.564;2022-10-26T18:31:26;18.80;75.50
53962;DHT22;39868;53.398;6.564;2022-10-26T18:34:00;18.80;75.50
53962;DHT22;39868;53.398;6.564;2022-10-26T18:36:29;18.80;75.60